Time;durP1;ratioP1;P1;durP2;ratioP2;P2;SDS_P1;SDS_P2;PMS_P1;PMS_P2;Temp;Humidity;BMP_temperature;BMP_pressure;BME280_temperature;BME280_humidity;BME280_pressure;Samples;Min_cycle;Max_cycle;Signal;HPM_P1;HPM_P2
2022/11/21 00:01:49;;;;;;;;;;;;;;;;;;5017076;28;20017;-84
2022/11/21 00:04:15;;;;;;;;;;;;;;;;;;4998245;28;20532;-84
2022/11/21 00:06:40;;;;;;;;;;;;;;;;;;5017150;28;19964;-83
2022/11/21 00:09:06;;;;;;;;;;;;;;;;;;5015531;28;19940;-84
2022/11/21 00:11:31;;;;;;;;;;;;;;;;;;4998236;28;19963;-84
2022/11/21 00:13:57;;;;;;;;;;;;;;;;;;5015811;28;19957;-84
2022/11/21 00:16:22;;;;;;;;;;;;;;;;;;4999794;28;19972;-84
2022/11/21 00:18:47;;;;;;;;;;;;;;;;;;4998515;28;19924;-86
2022/11/21 00:21:14;;;;;;;;;;;;;;;;;;5000062;28;19949;-85
2022/11/21 00:23:40;;;;;;;;;;;;;;;;;;5019072;28;19944;-84
2022/11/21 00:26:05;;;;;;;;;;;;;;;;;;5017804;28;20368;-85
2022/11/21 00:28:31;;;;;;;;;;;;;;;;;;5015495;28;19929;-85
2022/11/21 00:30:57;;;;;;;;;;;;;;;;;;5016108;28;19928;-84
2022/11/21 00:33:22;;;;;;;;;;;;;;;;;;5015414;28;19976;-83
2022/11/21 00:35:48;;;;;;;;;;;;;;;;;;5016523;28;19925;-84
2022/11/21 00:38:14;;;;;;;;;;;;;;;;;;4997833;28;20328;-83
2022/11/21 00:40:41;;;;;;;;;;;;;;;;;;5015255;28;19947;-84
2022/11/21 00:43:06;;;;;;;;;;;;;;;;;;4997360;28;19921;-84
2022/11/21 00:45:32;;;;;;;;;;;;;;;;;;4997620;28;19928;-84
2022/11/21 00:47:57;;;;;;;;;;;;;;;;;;5015347;28;19940;-85
2022/11/21 00:50:22;;;;;;;;;;;;;;;;;;5015129;28;19918;-84
2022/11/21 00:52:48;;;;;;;;;;;;;;;;;;5015675;28;19918;-84
2022/11/21 00:55:13;;;;;;;;;;;;;;;;;;5014909;28;20273;-84
2022/11/21 00:57:38;;;;;;;;;;;;;;;;;;5017265;28;19917;-84
2022/11/21 01:00:05;;;;;;;;;;;;;;;;;;4997194;28;20007;-85
2022/11/21 01:02:30;;;;;;;;;;;;;;;;;;5016395;28;19925;-83
2022/11/21 01:04:56;;;;;;;;;;;;;;;;;;4997320;28;19940;-85
2022/11/21 01:07:21;;;;;;;;;;;;;;;;;;4998009;28;19979;-84
2022/11/21 01:09:47;;;;;;;;;;;;;;;;;;4997249;28;19960;-84
2022/11/21 01:12:12;;;;;;;;;;;;;;;;;;5016159;28;19993;-84
2022/11/21 01:14:37;;;;;;;;;;;;;;;;;;5014862;28;19963;-85
2022/11/21 01:17:03;;;;;;;;;;;;;;;;;;5014730;28;19972;-84
2022/11/21 01:19:28;;;;;;;;;;;;;;;;;;5014673;28;20292;-84
2022/11/21 01:21:54;;;;;;;;;;;;;;;;;;4999475;28;19925;-84
2022/11/21 01:24:19;;;;;;;;;;;;;;;;;;5015533;28;19975;-85
2022/11/21 01:26:44;;;;;;;;;;;;;;;;;;5014537;28;19924;-84
2022/11/21 01:29:10;;;;;;;;;;;;;;;;;;5014580;28;20288;-83
2022/11/21 01:31:35;;;;;;;;;;;;;;;;;;5014673;28;19925;-85
2022/11/21 01:34:01;;;;;;;;;;;;;;;;;;5018175;28;19925;-84
2022/11/21 01:36:28;;;;;;;;;;;;;;;;;;5021099;28;19947;-84
2022/11/21 01:38:54;;;;;;;;;;;;;;;;;;5018794;28;19917;-84
2022/11/21 01:41:21;;;;;;;;;;;;;;;;;;5016420;28;19924;-84
2022/11/21 01:43:47;;;;;;;;;;;;;;;;;;5014492;28;19925;-84
2022/11/21 01:46:14;;;;;;;;;;;;;;;;;;5014362;28;19917;-84
2022/11/21 01:48:39;;;;;;;;;;;;;;;;;;4996961;28;19921;-84
2022/11/21 01:51:08;;;;;;;;;;;;;;;;;;5013661;28;19918;-84
2022/11/21 01:53:34;;;;;;;;;;;;;;;;;;4996641;28;19924;-83
2022/11/21 01:56:00;;;;;;;;;;;;;;;;;;5014432;28;19913;-84
2022/11/21 01:58:26;;;;;;;;;;;;;;;;;;5013892;28;20003;-84
2022/11/21 02:00:52;;;;;;;;;;;;;;;;;;4997294;28;19921;-84
2022/11/21 02:03:20;;;;;;;;;;;;;;;;;;5013447;28;19917;-84
2022/11/21 02:05:46;;;;;;;;;;;;;;;;;;4996827;28;19940;-84
2022/11/21 02:08:13;;;;;;;;;;;;;;;;;;5015140;28;19963;-85
2022/11/21 02:10:42;;;;;;;;;;;;;;;;;;5014326;28;19925;-84
2022/11/21 02:13:07;;;;;;;;;;;;;;;;;;5017027;28;20008;-85
2022/11/21 02:15:32;;;;;;;;;;;;;;;;;;5018325;28;19941;-84
2022/11/21 02:17:58;;;;;;;;;;;;;;;;;;5009755;28;19997;-84
2022/11/21 02:20:24;;;;;;;;;;;;;;;;;;5031576;28;19912;-84
2022/11/21 02:22:56;;;;;;;;;;;;;;;;;;5028525;28;19933;-84
2022/11/21 02:25:23;;;;;;;;;;;;;;;;;;5022201;28;19917;-84
2022/11/21 02:27:50;;;;;;;;;;;;;;;;;;5020461;28;19968;-85
2022/11/21 02:30:16;;;;;;;;;;;;;;;;;;5007503;28;19929;-85
2022/11/21 02:32:46;;;;;;;;;;;;;;;;;;5007742;28;19922;-84
2022/11/21 02:35:12;;;;;;;;;;;;;;;;;;4989181;28;19921;-86
2022/11/21 02:37:37;;;;;;;;;;;;;;;;;;5006873;28;19925;-86
2022/11/21 02:40:06;;;;;;;;;;;;;;;;;;5007799;28;20293;-85
2022/11/21 02:42:35;;;;;;;;;;;;;;;;;;5006944;28;19933;-85
2022/11/21 02:45:05;;;;;;;;;;;;;;;;;;5007105;28;19980;-84
2022/11/21 02:47:31;;;;;;;;;;;;;;;;;;5009648;28;19929;-87
2022/11/21 02:50:13;;;;;;;;;;;;;;;;;;5007333;28;19937;-85
2022/11/21 02:52:38;;;;;;;;;;;;;;;;;;5009766;28;20266;-85
2022/11/21 02:55:04;;;;;;;;;;;;;;;;;;4994323;28;19932;-84
2022/11/21 02:57:30;;;;;;;;;;;;;;;;;;5010756;28;19933;-85
2022/11/21 02:59:55;;;;;;;;;;;;;;;;;;5010027;28;19922;-84
2022/11/21 03:02:21;;;;;;;;;;;;;;;;;;5015417;28;20285;-85
2022/11/21 03:04:46;;;;;;;;;;;;;;;;;;5016028;28;19925;-85
2022/11/21 03:07:11;;;;;;;;;;;;;;;;;;5016105;28;20027;-84
2022/11/21 03:09:37;;;;;;;;;;;;;;;;;;5014626;28;19929;-84
2022/11/21 03:12:06;;;;;;;;;;;;;;;;;;5011829;28;19925;-85
2022/11/21 03:14:31;;;;;;;;;;;;;;;;;;5012224;28;19921;-84
2022/11/21 03:16:57;;;;;;;;;;;;;;;;;;4995976;28;19928;-84
2022/11/21 03:19:22;;;;;;;;;;;;;;;;;;5012679;28;19929;-84
2022/11/21 03:21:48;;;;;;;;;;;;;;;;;;4993561;28;19925;-84
2022/11/21 03:24:13;;;;;;;;;;;;;;;;;;4997553;28;19926;-84
2022/11/21 03:26:38;;;;;;;;;;;;;;;;;;5015222;28;19979;-85
2022/11/21 03:29:04;;;;;;;;;;;;;;;;;;5011814;28;19921;-84
2022/11/21 03:31:29;;;;;;;;;;;;;;;;;;5014524;28;19925;-84
2022/11/21 03:33:54;;;;;;;;;;;;;;;;;;5012876;28;19929;-84
2022/11/21 03:36:20;;;;;;;;;;;;;;;;;;5014027;28;19925;-85
2022/11/21 03:38:45;;;;;;;;;;;;;;;;;;4993278;28;19925;-84
2022/11/21 03:41:32;;;;;;;;;;;;;;;;;;5010431;28;19927;-84
2022/11/21 03:43:58;;;;;;;;;;;;;;;;;;5010876;28;19940;-85
2022/11/21 03:46:23;;;;;;;;;;;;;;;;;;4995243;28;19976;-84
2022/11/21 03:48:48;;;;;;;;;;;;;;;;;;5010286;28;20373;-85
2022/11/21 03:51:14;;;;;;;;;;;;;;;;;;4993268;28;19925;-85
2022/11/21 03:53:39;;;;;;;;;;;;;;;;;;5009802;28;19922;-85
2022/11/21 03:56:05;;;;;;;;;;;;;;;;;;4991308;28;21898;-85
2022/11/21 03:58:30;;;;;;;;;;;;;;;;;;4991628;28;19922;-85
2022/11/21 04:00:56;;;;;;;;;;;;;;;;;;5008800;28;20427;-84
2022/11/21 04:03:21;;;;;;;;;;;;;;;;;;5011379;28;20028;-85
2022/11/21 04:05:46;;;;;;;;;;;;;;;;;;4992436;28;19921;-85
2022/11/21 04:08:12;;;;;;;;;;;;;;;;;;5007893;28;19922;-84
2022/11/21 04:10:37;;;;;;;;;;;;;;;;;;5009506;28;20043;-84
2022/11/21 04:13:02;;;;;;;;;;;;;;;;;;5009300;28;19933;-84
2022/11/21 04:15:28;;;;;;;;;;;;;;;;;;5009180;28;20019;-86
2022/11/21 04:17:53;;;;;;;;;;;;;;;;;;5009701;28;20439;-85
2022/11/21 04:20:19;;;;;;;;;;;;;;;;;;5009023;28;19925;-85
2022/11/21 04:22:44;;;;;;;;;;;;;;;;;;5010513;28;19925;-86
2022/11/21 04:25:09;;;;;;;;;;;;;;;;;;5007210;28;19951;-86
2022/11/21 04:27:35;;;;;;;;;;;;;;;;;;5007834;28;20023;-86
2022/11/21 04:30:00;;;;;;;;;;;;;;;;;;5007072;28;19960;-85
2022/11/21 04:32:26;;;;;;;;;;;;;;;;;;5010374;28;19932;-84
2022/11/21 04:34:51;;;;;;;;;;;;;;;;;;4994721;28;19929;-84
2022/11/21 04:37:17;;;;;;;;;;;;;;;;;;5005097;28;20265;-85
2022/11/21 04:39:42;;;;;;;;;;;;;;;;;;5007993;28;19925;-85
2022/11/21 04:42:08;;;;;;;;;;;;;;;;;;5010046;28;20030;-84
2022/11/21 04:44:33;;;;;;;;;;;;;;;;;;5007595;28;19921;-85
2022/11/21 04:46:59;;;;;;;;;;;;;;;;;;5008109;28;19922;-85
2022/11/21 04:49:24;;;;;;;;;;;;;;;;;;5009864;28;20009;-85
2022/11/21 04:51:50;;;;;;;;;;;;;;;;;;4994442;28;19997;-84
2022/11/21 04:54:15;;;;;;;;;;;;;;;;;;5014845;28;19922;-87
2022/11/21 04:56:41;;;;;;;;;;;;;;;;;;4997280;28;19924;-84
2022/11/21 04:59:06;;;;;;;;;;;;;;;;;;5014283;28;19928;-83
2022/11/21 05:01:31;;;;;;;;;;;;;;;;;;5015006;28;20344;-84
2022/11/21 05:03:57;;;;;;;;;;;;;;;;;;5014366;28;20183;-84
2022/11/21 05:06:22;;;;;;;;;;;;;;;;;;5006674;28;20280;-84
2022/11/21 05:08:48;;;;;;;;;;;;;;;;;;5001697;28;19949;-84
2022/11/21 05:13:57;;;;;;;;;;;;;;;;;;5006635;28;19955;-85
2022/11/21 05:16:22;;;;;;;;;;;;;;;;;;5006977;28;20369;-84
2022/11/21 05:18:48;;;;;;;;;;;;;;;;;;4992112;28;19922;-85
2022/11/21 05:21:13;;;;;;;;;;;;;;;;;;4988023;28;20076;-84
2022/11/21 05:23:38;;;;;;;;;;;;;;;;;;4995864;28;19921;-85
2022/11/21 05:26:04;;;;;;;;;;;;;;;;;;4993066;28;19925;-85
2022/11/21 05:28:29;;;;;;;;;;;;;;;;;;4992038;28;19929;-87
2022/11/21 05:30:55;;;;;;;;;;;;;;;;;;5006194;28;19922;-86
2022/11/21 05:33:20;;;;;;;;;;;;;;;;;;4995757;28;19921;-84
2022/11/21 05:35:46;;;;;;;;;;;;;;;;;;5013707;28;19928;-87
2022/11/21 05:38:11;;;;;;;;;;;;;;;;;;5014165;28;19922;-85
2022/11/21 05:40:38;;;;;;;;;;;;;;;;;;5013222;28;19964;-85
2022/11/21 05:45:48;;;;;;;;;;;;;;;;;;5014412;28;19970;-84
2022/11/21 05:48:14;;;;;;;;;;;;;;;;;;5013997;28;19967;-84
2022/11/21 05:50:39;;;;;;;;;;;;;;;;;;5013755;28;19921;-85
2022/11/21 05:53:05;;;;;;;;;;;;;;;;;;5022624;28;19921;-86
2022/11/21 05:55:32;;;;;;;;;;;;;;;;;;5033605;28;19921;-86
2022/11/21 05:57:59;;;;;;;;;;;;;;;;;;5018983;28;19922;-86
2022/11/21 06:00:24;;;;;;;;;;;;;;;;;;5013864;28;19917;-85
2022/11/21 06:05:33;;;;;;;;;;;;;;;;;;5013633;28;19963;-86
2022/11/21 06:07:58;;;;;;;;;;;;;;;;;;5013645;28;20015;-85
2022/11/21 06:10:24;;;;;;;;;;;;;;;;;;5014329;28;20288;-87
2022/11/21 06:12:49;;;;;;;;;;;;;;;;;;5033405;28;19932;-89
2022/11/21 06:15:15;;;;;;;;;;;;;;;;;;5035054;28;19906;-85
2022/11/21 06:17:40;;;;;;;;;;;;;;;;;;5030424;28;19910;-86
2022/11/21 06:20:06;;;;;;;;;;;;;;;;;;5007414;28;19924;-84
2022/11/21 06:22:31;;;;;;;;;;;;;;;;;;5020111;28;19949;-85
2022/11/21 06:24:57;;;;;;;;;;;;;;;;;;4995862;28;20293;-87
2022/11/21 06:27:22;;;;;;;;;;;;;;;;;;4988830;28;19948;-85
2022/11/21 06:29:47;;;;;;;;;;;;;;;;;;5001991;28;19926;-86
2022/11/21 06:32:13;;;;;;;;;;;;;;;;;;5001659;28;20962;-87
2022/11/21 06:34:38;;;;;;;;;;;;;;;;;;5001758;28;19928;-87
2022/11/21 06:37:04;;;;;;;;;;;;;;;;;;4995397;28;19925;-87
2022/11/21 06:39:29;;;;;;;;;;;;;;;;;;5012702;28;20401;-86
2022/11/21 06:41:54;;;;;;;;;;;;;;;;;;5012783;28;19991;-87
2022/11/21 06:44:20;;;;;;;;;;;;;;;;;;5004846;28;19928;-87
2022/11/21 06:46:45;;;;;;;;;;;;;;;;;;4995058;28;19928;-87
2022/11/21 06:49:11;;;;;;;;;;;;;;;;;;4994967;28;19918;-85
2022/11/21 06:51:36;;;;;;;;;;;;;;;;;;4994552;28;19972;-86
2022/11/21 06:54:02;;;;;;;;;;;;;;;;;;4995165;28;19929;-86
2022/11/21 06:56:28;;;;;;;;;;;;;;;;;;5012713;28;19917;-86
2022/11/21 06:58:54;;;;;;;;;;;;;;;;;;5012626;28;19917;-86
2022/11/21 07:01:20;;;;;;;;;;;;;;;;;;5012841;28;19918;-86
2022/11/21 07:03:45;;;;;;;;;;;;;;;;;;5012382;28;19917;-86
2022/11/21 07:06:11;;;;;;;;;;;;;;;;;;5012475;28;19918;-84
2022/11/21 07:08:36;;;;;;;;;;;;;;;;;;4994688;28;19947;-84
2022/11/21 07:11:09;;;;;;;;;;;;;;;;;;5012465;28;20388;-85
2022/11/21 07:13:34;;;;;;;;;;;;;;;;;;5011919;28;19928;-84
2022/11/21 07:16:01;;;;;;;;;;;;;;;;;;5001081;28;19926;-83
2022/11/21 07:18:27;;;;;;;;;;;;;;;;;;4978207;28;19925;-83
2022/11/21 07:20:56;;;;;;;;;;;;;;;;;;4992462;28;19917;-84
2022/11/21 07:23:21;;;;;;;;;;;;;;;;;;5011814;28;19988;-86
2022/11/21 07:25:47;;;;;;;;;;;;;;;;;;5012312;28;20358;-86
2022/11/21 07:28:12;;;;;;;;;;;;;;;;;;4994774;28;19918;-85
2022/11/21 07:30:37;;;;;;;;;;;;;;;;;;5012104;28;20375;-85
2022/11/21 07:33:04;;;;;;;;;;;;;;;;;;5003538;28;19931;-87
2022/11/21 07:35:30;;;;;;;;;;;;;;;;;;5010780;28;20031;-86
2022/11/21 07:37:56;;;;;;;;;;;;;;;;;;5002185;28;20012;-84
2022/11/21 07:40:21;;;;;;;;;;;;;;;;;;5010043;28;19914;-84
2022/11/21 07:42:46;;;;;;;;;;;;;;;;;;4994546;28;19996;-86
2022/11/21 07:45:12;;;;;;;;;;;;;;;;;;5002386;28;19949;-84
2022/11/21 07:47:38;;;;;;;;;;;;;;;;;;4984103;28;20296;-85
2022/11/21 07:50:07;;;;;;;;;;;;;;;;;;5015031;28;19971;-85
2022/11/21 07:52:32;;;;;;;;;;;;;;;;;;5015393;28;20012;-86
2022/11/21 07:55:01;;;;;;;;;;;;;;;;;;5015825;28;19983;-86
2022/11/21 07:57:26;;;;;;;;;;;;;;;;;;5015663;28;20046;-85
2022/11/21 07:59:51;;;;;;;;;;;;;;;;;;5015391;28;20324;-85
2022/11/21 08:02:21;;;;;;;;;;;;;;;;;;5015520;28;19972;-85
2022/11/21 08:04:47;;;;;;;;;;;;;;;;;;5015505;28;19921;-85
2022/11/21 08:07:13;;;;;;;;;;;;;;;;;;5015626;28;19976;-85
2022/11/21 08:09:38;;;;;;;;;;;;;;;;;;5015223;28;19963;-86
2022/11/21 08:12:04;;;;;;;;;;;;;;;;;;5015224;28;20008;-87
2022/11/21 08:14:29;;;;;;;;;;;;;;;;;;4997772;28;20369;-84
2022/11/21 08:16:54;;;;;;;;;;;;;;;;;;5014285;28;19921;-86
2022/11/21 08:19:20;;;;;;;;;;;;;;;;;;5003450;28;19921;-87
2022/11/21 08:21:45;;;;;;;;;;;;;;;;;;4994356;28;19922;-86
2022/11/21 08:24:13;;;;;;;;;;;;;;;;;;4995078;28;19921;-87
2022/11/21 08:26:39;;;;;;;;;;;;;;;;;;4993667;28;19925;-87
2022/11/21 08:29:06;;;;;;;;;;;;;;;;;;4992089;28;19921;-85
2022/11/21 08:31:32;;;;;;;;;;;;;;;;;;4996409;28;19917;-86
2022/11/21 08:33:57;;;;;;;;;;;;;;;;;;5013812;28;20262;-86
2022/11/21 08:36:23;;;;;;;;;;;;;;;;;;4995131;28;19925;-85
2022/11/21 08:38:48;;;;;;;;;;;;;;;;;;5009679;28;20051;-85
2022/11/21 08:43:58;;;;;;;;;;;;;;;;;;5014450;28;20404;-85
2022/11/21 08:46:27;;;;;;;;;;;;;;;;;;4996742;28;19961;-84
2022/11/21 08:48:55;;;;;;;;;;;;;;;;;;5014505;28;20044;-84
2022/11/21 08:51:21;;;;;;;;;;;;;;;;;;4996760;28;19917;-84
2022/11/21 08:53:46;;;;;;;;;;;;;;;;;;4997041;28;19976;-84
2022/11/21 08:56:12;;;;;;;;;;;;;;;;;;5014819;28;19918;-85
2022/11/21 08:58:38;;;;;;;;;;;;;;;;;;5014859;28;20424;-85
2022/11/21 09:01:03;;;;;;;;;;;;;;;;;;5014645;28;19918;-86
2022/11/21 09:03:29;;;;;;;;;;;;;;;;;;4997099;28;19918;-84
2022/11/21 09:05:55;;;;;;;;;;;;;;;;;;5014904;28;19947;-87
2022/11/21 09:08:20;;;;;;;;;;;;;;;;;;5014436;28;19960;-85
2022/11/21 09:10:46;;;;;;;;;;;;;;;;;;4997110;28;20011;-85
2022/11/21 09:13:11;;;;;;;;;;;;;;;;;;5014764;28;19924;-84
2022/11/21 09:18:20;;;;;;;;;;;;;;;;;;5014359;28;19929;-85
2022/11/21 09:20:46;;;;;;;;;;;;;;;;;;5014541;28;20289;-84
2022/11/21 09:23:12;;;;;;;;;;;;;;;;;;5014317;28;19928;-84
2022/11/21 09:25:38;;;;;;;;;;;;;;;;;;5014531;28;19957;-85
2022/11/21 09:28:04;;;;;;;;;;;;;;;;;;5014289;28;20372;-84
2022/11/21 09:30:29;;;;;;;;;;;;;;;;;;5014416;28;19918;-86
2022/11/21 09:32:59;;;;;;;;;;;;;;;;;;5014440;28;19927;-84
2022/11/21 09:35:24;;;;;;;;;;;;;;;;;;5014356;28;20004;-86
2022/11/21 09:37:50;;;;;;;;;;;;;;;;;;5014135;28;19963;-85
2022/11/21 09:40:16;;;;;;;;;;;;;;;;;;5014002;28;19918;-86
2022/11/21 09:43:00;;;;;;;;;;;;;;;;;;4996521;28;19976;-85
2022/11/21 09:45:30;;;;;;;;;;;;;;;;;;5014102;28;19924;-85
2022/11/21 09:47:55;;;;;;;;;;;;;;;;;;4996165;28;19917;-84
2022/11/21 09:50:27;;;;;;;;;;;;;;;;;;5014111;28;19924;-85
2022/11/21 09:53:11;;;;;;;;;;;;;;;;;;5014029;28;19923;-85
2022/11/21 09:55:56;;;;;;;;;;;;;;;;;;5015067;28;19960;-84
2022/11/21 09:58:38;;;;;;;;;;;;;;;;;;5018178;28;19912;-84
2022/11/21 10:01:03;;;;;;;;;;;;;;;;;;5020948;28;19961;-85
2022/11/21 10:03:31;;;;;;;;;;;;;;;;;;5009737;28;19924;-84
2022/11/21 10:06:00;;;;;;;;;;;;;;;;;;4997102;28;19978;-84
2022/11/21 10:08:31;;;;;;;;;;;;;;;;;;4994329;28;19921;-84
2022/11/21 10:11:10;;;;;;;;;;;;;;;;;;4992119;28;19922;-85
2022/11/21 10:13:38;;;;;;;;;;;;;;;;;;4992910;28;20281;-84
2022/11/21 10:16:07;;;;;;;;;;;;;;;;;;4994020;28;19917;-86
2022/11/21 10:18:38;;;;;;;;;;;;;;;;;;4994186;28;20437;-84
2022/11/21 10:21:13;;;;;;;;;;;;;;;;;;4992788;28;19917;-84
2022/11/21 10:23:38;;;;;;;;;;;;;;;;;;4992064;28;20017;-85
2022/11/21 10:26:20;;;;;;;;;;;;;;;;;;4992527;28;20036;-85
2022/11/21 10:29:05;;;;;;;;;;;;;;;;;;4993825;28;19941;-84
2022/11/21 10:31:34;;;;;;;;;;;;;;;;;;4993784;28;19922;-84
2022/11/21 10:34:01;;;;;;;;;;;;;;;;;;4993745;28;20397;-85
2022/11/21 10:36:34;;;;;;;;;;;;;;;;;;4993618;28;20290;-85
2022/11/21 10:39:05;;;;;;;;;;;;;;;;;;4993460;28;19921;-85
2022/11/21 10:41:43;;;;;;;;;;;;;;;;;;4993545;28;20344;-85
2022/11/21 10:47:00;;;;;;;;;;;;;;;;;;4993681;28;20014;-85
2022/11/21 10:49:27;;;;;;;;;;;;;;;;;;4991906;28;20297;-85
2022/11/21 10:51:53;;;;;;;;;;;;;;;;;;4992227;28;20004;-86
2022/11/21 10:54:34;;;;;;;;;;;;;;;;;;5007090;28;20424;-86
2022/11/21 10:57:09;;;;;;;;;;;;;;;;;;5012893;28;19918;-85
2022/11/21 10:59:35;;;;;;;;;;;;;;;;;;5012315;28;19922;-84
2022/11/21 11:02:13;;;;;;;;;;;;;;;;;;4995104;28;19929;-84
2022/11/21 11:04:38;;;;;;;;;;;;;;;;;;5012397;28;19918;-85
2022/11/21 11:07:20;;;;;;;;;;;;;;;;;;5014013;28;19975;-85
2022/11/21 11:09:46;;;;;;;;;;;;;;;;;;5011908;28;19921;-85
2022/11/21 11:12:17;;;;;;;;;;;;;;;;;;5013551;28;20013;-86
2022/11/21 11:14:48;;;;;;;;;;;;;;;;;;5012597;28;20008;-85
2022/11/21 11:17:13;;;;;;;;;;;;;;;;;;5003269;28;20289;-84
2022/11/21 11:19:39;;;;;;;;;;;;;;;;;;5010855;28;19928;-85
2022/11/21 11:22:24;;;;;;;;;;;;;;;;;;4995256;28;20027;-85
2022/11/21 11:24:53;;;;;;;;;;;;;;;;;;4998501;28;20288;-84
2022/11/21 11:27:25;;;;;;;;;;;;;;;;;;4998466;28;20360;-86
2022/11/21 11:29:51;;;;;;;;;;;;;;;;;;5010372;28;20331;-84
2022/11/21 11:32:20;;;;;;;;;;;;;;;;;;5007836;28;19929;-85
2022/11/21 11:34:48;;;;;;;;;;;;;;;;;;5007372;28;19925;-86
2022/11/21 11:37:31;;;;;;;;;;;;;;;;;;5004244;28;20377;-85
2022/11/21 11:39:56;;;;;;;;;;;;;;;;;;4994802;28;19992;-84
2022/11/21 11:48:38;;;;;;;;;;;;;;;;;;4917318;29;19974;-89
2022/11/21 11:51:08;;;;;;;;;;;;;;;;;;4901278;29;20364;-85
2022/11/21 11:53:37;;;;;;;;;;;;;;;;;;4916581;29;20142;-85
2022/11/21 11:56:14;;;;;;;;;;;;;;;;;;4913385;29;19927;-86
2022/11/21 11:58:53;;;;;;;;;;;;;;;;;;4924516;29;19929;-84
2022/11/21 12:01:30;;;;;;;;;;;;;;;;;;4927475;29;19922;-85
2022/11/21 12:03:56;;;;;;;;;;;;;;;;;;4929520;29;20394;-86
2022/11/21 12:06:24;;;;;;;;;;;;;;;;;;4935917;29;19927;-85
2022/11/21 12:08:53;;;;;;;;;;;;;;;;;;4936417;29;19962;-83
2022/11/21 12:15:47;;;;;;;;;;;;;;;;;;4932848;29;19941;-86
2022/11/21 12:17:05;;;;;;;;;;;;;;;;;;4935769;29;19919;-85
2022/11/21 12:19:40;;;;;;;;;;;;;;;;;;4924652;29;19976;-85
2022/11/21 12:22:10;;;;;;;;;;;;;;;;;;4933069;29;19989;-84
2022/11/21 12:24:36;;;;;;;;;;;;;;;;;;4952869;28;19933;-85
2022/11/21 12:27:14;;;;;;;;;;;;;;;;;;4979367;28;19922;-88
2022/11/21 12:29:46;;;;;;;;;;;;;;;;;;4996196;28;20416;-82
2022/11/21 12:32:30;;;;;;;;;;;;;;;;;;4993424;28;20413;-82
2022/11/21 12:35:14;;;;;;;;;;;;;;;;;;4993093;28;19925;-83
2022/11/21 12:37:42;;;;;;;;;;;;;;;;;;4995914;28;20013;-83
2022/11/21 12:40:20;;;;;;;;;;;;;;;;;;4995294;28;19925;-83
2022/11/21 12:42:53;;;;;;;;;;;;;;;;;;4995909;28;19968;-82
2022/11/21 12:45:37;;;;;;;;;;;;;;;;;;4998562;28;19925;-84
2022/11/21 12:57:10;;;;;;;;;;;;;;;;;;4996356;28;19929;-86
2022/11/21 12:59:54;;;;;;;;;;;;;;;;;;4989046;28;19984;-86
2022/11/21 13:02:48;;;;;;;;;;;;;;;;;;4989047;28;19917;-85
2022/11/21 13:05:17;;;;;;;;;;;;;;;;;;4983352;28;19925;-84
2022/11/21 13:07:43;;;;;;;;;;;;;;;;;;4990128;28;19949;-84
2022/11/21 13:10:12;;;;;;;;;;;;;;;;;;4989105;28;20292;-84
2022/11/21 13:12:46;;;;;;;;;;;;;;;;;;4978718;28;19933;-85
2022/11/21 13:15:17;;;;;;;;;;;;;;;;;;4984607;28;19922;-86
2022/11/21 13:17:53;;;;;;;;;;;;;;;;;;4980480;28;20094;-85
2022/11/21 13:20:21;;;;;;;;;;;;;;;;;;4986864;28;19922;-84
2022/11/21 13:22:48;;;;;;;;;;;;;;;;;;4985672;28;20421;-85
2022/11/21 13:25:31;;;;;;;;;;;;;;;;;;5005548;28;19929;-85
2022/11/21 13:28:12;;;;;;;;;;;;;;;;;;5003661;28;19968;-84
2022/11/21 13:30:54;;;;;;;;;;;;;;;;;;5007231;28;20432;-85
2022/11/21 13:33:48;;;;;;;;;;;;;;;;;;4991166;28;20387;-84
2022/11/21 13:36:26;;;;;;;;;;;;;;;;;;4974755;28;19921;-85
2022/11/21 13:38:52;;;;;;;;;;;;;;;;;;5025112;28;19914;-84
2022/11/21 13:44:29;;;;;;;;;;;;;;;;;;5007990;28;19983;-85
2022/11/21 13:47:11;;;;;;;;;;;;;;;;;;5004546;28;20303;-86
2022/11/21 13:49:47;;;;;;;;;;;;;;;;;;5005271;28;19925;-84
2022/11/21 13:52:25;;;;;;;;;;;;;;;;;;4989844;28;20481;-86
2022/11/21 13:55:05;;;;;;;;;;;;;;;;;;5010649;28;20392;-84
2022/11/21 13:57:37;;;;;;;;;;;;;;;;;;5010617;28;19922;-85
2022/11/21 14:00:14;;;;;;;;;;;;;;;;;;5010432;28;19925;-86
2022/11/21 14:02:58;;;;;;;;;;;;;;;;;;4990765;28;20365;-84
2022/11/21 14:05:26;;;;;;;;;;;;;;;;;;4990477;28;19972;-84
2022/11/21 14:07:51;;;;;;;;;;;;;;;;;;4973291;28;20378;-85
2022/11/21 14:10:24;;;;;;;;;;;;;;;;;;4990824;28;19928;-84
2022/11/21 14:12:50;;;;;;;;;;;;;;;;;;4986207;28;19921;-85
2022/11/21 14:15:35;;;;;;;;;;;;;;;;;;4992237;28;19971;-85
2022/11/21 14:18:01;;;;;;;;;;;;;;;;;;4999278;28;20016;-84
2022/11/21 14:20:26;;;;;;;;;;;;;;;;;;5009917;28;20413;-86
2022/11/21 14:23:02;;;;;;;;;;;;;;;;;;5009399;28;20293;-86
2022/11/21 14:25:34;;;;;;;;;;;;;;;;;;5009978;28;19926;-86
2022/11/21 14:28:00;;;;;;;;;;;;;;;;;;5010272;28;20012;-86
2022/11/21 14:30:34;;;;;;;;;;;;;;;;;;4991834;28;19929;-86
2022/11/21 14:33:18;;;;;;;;;;;;;;;;;;5008650;28;19928;-85
2022/11/21 14:35:46;;;;;;;;;;;;;;;;;;5007515;28;19925;-85
2022/11/21 14:38:13;;;;;;;;;;;;;;;;;;5009369;28;19921;-85
2022/11/21 14:40:38;;;;;;;;;;;;;;;;;;4991641;28;19928;-85
2022/11/21 14:43:20;;;;;;;;;;;;;;;;;;5006146;28;19921;-85
2022/11/21 14:45:49;;;;;;;;;;;;;;;;;;5006750;28;19956;-85
2022/11/21 14:48:14;;;;;;;;;;;;;;;;;;4992222;28;19964;-86
2022/11/21 14:50:41;;;;;;;;;;;;;;;;;;4991746;28;19964;-87
2022/11/21 14:53:08;;;;;;;;;;;;;;;;;;5010002;28;19917;-83
2022/11/21 14:55:34;;;;;;;;;;;;;;;;;;5009527;28;19921;-86
2022/11/21 14:58:01;;;;;;;;;;;;;;;;;;5012552;28;19928;-83
2022/11/21 15:00:27;;;;;;;;;;;;;;;;;;5016110;28;19922;-87
2022/11/21 15:02:54;;;;;;;;;;;;;;;;;;5016225;28;19928;-87
2022/11/21 15:05:22;;;;;;;;;;;;;;;;;;5015696;28;19964;-86
2022/11/21 15:07:48;;;;;;;;;;;;;;;;;;5015582;28;19926;-87
2022/11/21 15:10:14;;;;;;;;;;;;;;;;;;4997481;28;19957;-86
2022/11/21 15:12:45;;;;;;;;;;;;;;;;;;5015401;28;20011;-87
2022/11/21 15:15:27;;;;;;;;;;;;;;;;;;5014885;28;19967;-86
2022/11/21 15:17:56;;;;;;;;;;;;;;;;;;5015213;28;19928;-86
2022/11/21 15:20:22;;;;;;;;;;;;;;;;;;5015200;28;20415;-86
2022/11/21 15:22:48;;;;;;;;;;;;;;;;;;5015353;28;20020;-86
2022/11/21 15:25:17;;;;;;;;;;;;;;;;;;4997061;28;20020;-87
2022/11/21 15:28:07;;;;;;;;;;;;;;;;;;5015639;28;20347;-86
2022/11/21 15:30:34;;;;;;;;;;;;;;;;;;5015575;28;19928;-86
2022/11/21 15:33:13;;;;;;;;;;;;;;;;;;5010994;28;19921;-85
2022/11/21 15:35:43;;;;;;;;;;;;;;;;;;5015556;28;19921;-85
2022/11/21 15:38:27;;;;;;;;;;;;;;;;;;5005808;28;19926;-85
2022/11/21 15:41:08;;;;;;;;;;;;;;;;;;5007194;28;19926;-86
2022/11/21 15:43:37;;;;;;;;;;;;;;;;;;4998781;28;20024;-86
2022/11/21 15:46:03;;;;;;;;;;;;;;;;;;5019265;23;19929;-85
2022/11/21 15:48:29;;;;;;;;;;;;;;;;;;4997773;28;19933;-85
2022/11/21 15:50:57;;;;;;;;;;;;;;;;;;5012678;28;19921;-85
2022/11/21 15:53:23;;;;;;;;;;;;;;;;;;5007528;28;20419;-86
2022/11/21 15:55:48;;;;;;;;;;;;;;;;;;4997220;28;19925;-86
2022/11/21 15:58:13;;;;;;;;;;;;;;;;;;4993828;28;19922;-88
2022/11/21 16:00:39;;;;;;;;;;;;;;;;;;5009038;28;19921;-85
2022/11/21 16:03:04;;;;;;;;;;;;;;;;;;4993352;28;20011;-87
2022/11/21 16:05:30;;;;;;;;;;;;;;;;;;4982566;28;19925;-86
2022/11/21 16:07:55;;;;;;;;;;;;;;;;;;5010844;28;20297;-86
2022/11/21 16:10:21;;;;;;;;;;;;;;;;;;5007349;28;19928;-88
2022/11/21 16:12:46;;;;;;;;;;;;;;;;;;5012118;28;19926;-88
2022/11/21 16:15:11;;;;;;;;;;;;;;;;;;4994273;28;20357;-86
2022/11/21 16:17:38;;;;;;;;;;;;;;;;;;4993481;28;19932;-87
2022/11/21 16:20:04;;;;;;;;;;;;;;;;;;4994423;28;19925;-87
2022/11/21 16:22:30;;;;;;;;;;;;;;;;;;4994807;28;19937;-87
2022/11/21 16:24:55;;;;;;;;;;;;;;;;;;5031299;28;20395;-87
2022/11/21 16:27:21;;;;;;;;;;;;;;;;;;5001175;28;20328;-86
2022/11/21 16:29:46;;;;;;;;;;;;;;;;;;4986431;28;19973;-86
2022/11/21 16:32:12;;;;;;;;;;;;;;;;;;4987173;28;19925;-88
2022/11/21 16:34:37;;;;;;;;;;;;;;;;;;5010787;28;19921;-87
2022/11/21 16:37:02;;;;;;;;;;;;;;;;;;4993732;28;20016;-86
2022/11/21 16:39:28;;;;;;;;;;;;;;;;;;4974934;28;20290;-85
2022/11/21 16:41:53;;;;;;;;;;;;;;;;;;4995061;28;20266;-86
2022/11/21 16:44:19;;;;;;;;;;;;;;;;;;5000271;28;20430;-87
2022/11/21 16:46:46;;;;;;;;;;;;;;;;;;5005157;28;19972;-87
2022/11/21 16:49:12;;;;;;;;;;;;;;;;;;5002816;28;19925;-87
2022/11/21 16:51:37;;;;;;;;;;;;;;;;;;4983128;28;19918;-88
2022/11/21 16:54:03;;;;;;;;;;;;;;;;;;4993301;28;19925;-88
2022/11/21 16:56:28;;;;;;;;;;;;;;;;;;4982171;28;20352;-88
2022/11/21 16:58:54;;;;;;;;;;;;;;;;;;4996629;28;19922;-87
2022/11/21 17:01:24;;;;;;;;;;;;;;;;;;4995507;28;19924;-86
2022/11/21 17:03:49;;;;;;;;;;;;;;;;;;4994717;28;19921;-87
2022/11/21 17:06:16;;;;;;;;;;;;;;;;;;4993680;28;19922;-87
2022/11/21 17:08:41;;;;;;;;;;;;;;;;;;5005610;28;19964;-87
2022/11/21 17:11:13;;;;;;;;;;;;;;;;;;4978206;28;19953;-86
2022/11/21 17:13:39;;;;;;;;;;;;;;;;;;5003529;28;19924;-88
2022/11/21 17:16:04;;;;;;;;;;;;;;;;;;5003913;28;19921;-87
2022/11/21 17:18:30;;;;;;;;;;;;;;;;;;5016576;28;19925;-87
2022/11/21 17:20:55;;;;;;;;;;;;;;;;;;5016146;28;19917;-86
2022/11/21 17:23:21;;;;;;;;;;;;;;;;;;4993835;28;19922;-89
2022/11/21 17:25:46;;;;;;;;;;;;;;;;;;5011482;28;19973;-88
2022/11/21 17:28:11;;;;;;;;;;;;;;;;;;5010955;28;20705;-87
2022/11/21 17:30:42;;;;;;;;;;;;;;;;;;5009950;28;19922;-87